sensor_id;sensor_type;location;lat;lon;timestamp;P1;durP1;ratioP1;P2;durP2;ratioP2
12962;SDS011;6546;49.882;8.666;2022-10-16T00:00:37;4.07;;;2.20;;
12962;SDS011;6546;49.882;8.666;2022-10-16T00:03:06;3.03;;;2.10;;
12962;SDS011;6546;49.882;8.666;2022-10-16T00:05:37;2.23;;;2.03;;
12962;SDS011;6546;49.882;8.666;2022-10-16T00:08:06;2.33;;;2.10;;
12962;SDS011;6546;49.882;8.666;2022-10-16T00:10:33;3.00;;;2.50;;
12962;SDS011;6546;49.882;8.666;2022-10-16T00:13:01;2.33;;;2.10;;
12962;SDS011;6546;49.882;8.666;2022-10-16T00:15:30;3.53;;;2.23;;
12962;SDS011;6546;49.882;8.666;2022-10-16T00:18:01;4.50;;;2.47;;
12962;SDS011;6546;49.882;8.666;2022-10-16T00:20:28;3.83;;;2.00;;
12962;SDS011;6546;49.882;8.666;2022-10-16T00:22:56;3.13;;;2.10;;
12962;SDS011;6546;49.882;8.666;2022-10-16T00:25:23;3.47;;;2.10;;
12962;SDS011;6546;49.882;8.666;2022-10-16T00:27:50;2.67;;;1.90;;
12962;SDS011;6546;49.882;8.666;2022-10-16T00:30:17;2.40;;;1.90;;
12962;SDS011;6546;49.882;8.666;2022-10-16T00:32:45;2.30;;;1.97;;
12962;SDS011;6546;49.882;8.666;2022-10-16T00:35:12;7.40;;;2.07;;
12962;SDS011;6546;49.882;8.666;2022-10-16T00:37:39;2.30;;;1.93;;
12962;SDS011;6546;49.882;8.666;2022-10-16T00:40:06;1.97;;;1.87;;
12962;SDS011;6546;49.882;8.666;2022-10-16T00:42:34;1.97;;;1.87;;
12962;SDS011;6546;49.882;8.666;2022-10-16T00:45:01;2.33;;;1.70;;
12962;SDS011;6546;49.882;8.666;2022-10-16T00:47:30;2.33;;;1.80;;
12962;SDS011;6546;49.882;8.666;2022-10-16T00:50:04;2.93;;;1.70;;
12962;SDS011;6546;49.882;8.666;2022-10-16T00:52:34;1.83;;;1.67;;
12962;SDS011;6546;49.882;8.666;2022-10-16T00:55:02;3.97;;;1.60;;
12962;SDS011;6546;49.882;8.666;2022-10-16T00:57:30;2.60;;;1.60;;
12962;SDS011;6546;49.882;8.666;2022-10-16T00:59:57;2.17;;;1.40;;
12962;SDS011;6546;49.882;8.666;2022-10-16T01:02:24;1.30;;;1.20;;
12962;SDS011;6546;49.882;8.666;2022-10-16T01:04:52;2.17;;;1.53;;
12962;SDS011;6546;49.882;8.666;2022-10-16T01:07:27;1.97;;;1.27;;
12962;SDS011;6546;49.882;8.666;2022-10-16T01:10:06;1.27;;;1.17;;
12962;SDS011;6546;49.882;8.666;2022-10-16T01:12:41;1.50;;;1.10;;
12962;SDS011;6546;49.882;8.666;2022-10-16T01:15:13;2.43;;;1.33;;
12962;SDS011;6546;49.882;8.666;2022-10-16T01:17:52;1.33;;;1.00;;
12962;SDS011;6546;49.882;8.666;2022-10-16T01:20:25;0.90;;;0.90;;
12962;SDS011;6546;49.882;8.666;2022-10-16T01:25:58;1.50;;;1.20;;
12962;SDS011;6546;49.882;8.666;2022-10-16T01:28:38;1.73;;;1.03;;
12962;SDS011;6546;49.882;8.666;2022-10-16T01:31:08;1.27;;;1.00;;
12962;SDS011;6546;49.882;8.666;2022-10-16T01:33:38;1.73;;;1.10;;
12962;SDS011;6546;49.882;8.666;2022-10-16T01:36:10;2.43;;;1.10;;
12962;SDS011;6546;49.882;8.666;2022-10-16T01:38:40;1.03;;;1.03;;
12962;SDS011;6546;49.882;8.666;2022-10-16T01:41:13;1.23;;;1.00;;
12962;SDS011;6546;49.882;8.666;2022-10-16T01:43:46;1.30;;;1.00;;
12962;SDS011;6546;49.882;8.666;2022-10-16T01:46:16;1.77;;;1.00;;
12962;SDS011;6546;49.882;8.666;2022-10-16T01:48:45;1.30;;;1.20;;
12962;SDS011;6546;49.882;8.666;2022-10-16T01:51:13;4.87;;;1.10;;
12962;SDS011;6546;49.882;8.666;2022-10-16T01:53:43;1.97;;;1.20;;
12962;SDS011;6546;49.882;8.666;2022-10-16T01:56:14;1.00;;;1.00;;
12962;SDS011;6546;49.882;8.666;2022-10-16T01:58:44;1.77;;;1.20;;
12962;SDS011;6546;49.882;8.666;2022-10-16T02:01:17;2.40;;;1.10;;
12962;SDS011;6546;49.882;8.666;2022-10-16T02:03:48;1.30;;;1.20;;
12962;SDS011;6546;49.882;8.666;2022-10-16T02:06:18;2.07;;;1.20;;
12962;SDS011;6546;49.882;8.666;2022-10-16T02:08:45;3.00;;;1.30;;
12962;SDS011;6546;49.882;8.666;2022-10-16T02:11:12;1.87;;;1.20;;
12962;SDS011;6546;49.882;8.666;2022-10-16T02:13:40;3.37;;;1.60;;
12962;SDS011;6546;49.882;8.666;2022-10-16T02:16:14;2.90;;;1.80;;
12962;SDS011;6546;49.882;8.666;2022-10-16T02:18:42;2.20;;;1.97;;
12962;SDS011;6546;49.882;8.666;2022-10-16T02:21:12;3.30;;;1.90;;
12962;SDS011;6546;49.882;8.666;2022-10-16T02:23:45;1.63;;;1.53;;
12962;SDS011;6546;49.882;8.666;2022-10-16T02:26:19;2.07;;;1.67;;
12962;SDS011;6546;49.882;8.666;2022-10-16T02:28:57;3.50;;;1.60;;
12962;SDS011;6546;49.882;8.666;2022-10-16T02:31:32;2.47;;;2.00;;
12962;SDS011;6546;49.882;8.666;2022-10-16T02:34:02;1.90;;;1.70;;
12962;SDS011;6546;49.882;8.666;2022-10-16T02:36:31;4.13;;;2.10;;
12962;SDS011;6546;49.882;8.666;2022-10-16T02:39:00;2.53;;;2.33;;
12962;SDS011;6546;49.882;8.666;2022-10-16T02:41:29;3.50;;;2.40;;
12962;SDS011;6546;49.882;8.666;2022-10-16T02:43:56;5.00;;;2.37;;
12962;SDS011;6546;49.882;8.666;2022-10-16T02:46:23;2.83;;;2.37;;
12962;SDS011;6546;49.882;8.666;2022-10-16T02:48:51;2.57;;;2.20;;
12962;SDS011;6546;49.882;8.666;2022-10-16T02:51:19;3.93;;;2.30;;
12962;SDS011;6546;49.882;8.666;2022-10-16T02:53:46;3.93;;;3.00;;
12962;SDS011;6546;49.882;8.666;2022-10-16T02:56:14;5.10;;;2.83;;
12962;SDS011;6546;49.882;8.666;2022-10-16T02:58:41;4.03;;;2.50;;
12962;SDS011;6546;49.882;8.666;2022-10-16T03:01:07;2.90;;;2.67;;
12962;SDS011;6546;49.882;8.666;2022-10-16T03:03:34;2.80;;;2.60;;
12962;SDS011;6546;49.882;8.666;2022-10-16T03:06:04;4.80;;;3.10;;
12962;SDS011;6546;49.882;8.666;2022-10-16T03:08:31;3.97;;;3.40;;
12962;SDS011;6546;49.882;8.666;2022-10-16T03:10:58;4.03;;;3.53;;
12962;SDS011;6546;49.882;8.666;2022-10-16T03:13:24;4.43;;;4.03;;
12962;SDS011;6546;49.882;8.666;2022-10-16T03:15:51;4.30;;;3.90;;
12962;SDS011;6546;49.882;8.666;2022-10-16T03:18:18;5.13;;;3.90;;
12962;SDS011;6546;49.882;8.666;2022-10-16T03:20:45;6.93;;;4.80;;
12962;SDS011;6546;49.882;8.666;2022-10-16T03:23:18;7.00;;;4.43;;
12962;SDS011;6546;49.882;8.666;2022-10-16T03:25:45;4.27;;;3.87;;
12962;SDS011;6546;49.882;8.666;2022-10-16T03:28:12;6.73;;;4.50;;
12962;SDS011;6546;49.882;8.666;2022-10-16T03:30:38;5.83;;;4.53;;
12962;SDS011;6546;49.882;8.666;2022-10-16T03:33:05;4.80;;;4.10;;
12962;SDS011;6546;49.882;8.666;2022-10-16T03:35:32;5.13;;;4.40;;
12962;SDS011;6546;49.882;8.666;2022-10-16T03:37:59;5.03;;;4.53;;
12962;SDS011;6546;49.882;8.666;2022-10-16T03:40:28;4.97;;;4.10;;
12962;SDS011;6546;49.882;8.666;2022-10-16T03:42:57;5.97;;;4.13;;
12962;SDS011;6546;49.882;8.666;2022-10-16T03:45:24;6.83;;;4.23;;
12962;SDS011;6546;49.882;8.666;2022-10-16T03:47:51;9.70;;;5.00;;
12962;SDS011;6546;49.882;8.666;2022-10-16T03:50:18;7.27;;;5.17;;
12962;SDS011;6546;49.882;8.666;2022-10-16T03:52:46;5.43;;;4.90;;
12962;SDS011;6546;49.882;8.666;2022-10-16T03:55:13;6.27;;;4.33;;
12962;SDS011;6546;49.882;8.666;2022-10-16T03:57:41;6.33;;;4.47;;
12962;SDS011;6546;49.882;8.666;2022-10-16T04:00:09;5.40;;;4.87;;
12962;SDS011;6546;49.882;8.666;2022-10-16T04:02:40;5.53;;;4.40;;
12962;SDS011;6546;49.882;8.666;2022-10-16T04:05:07;5.43;;;4.70;;
12962;SDS011;6546;49.882;8.666;2022-10-16T04:07:34;6.30;;;4.77;;
12962;SDS011;6546;49.882;8.666;2022-10-16T04:10:03;7.90;;;4.87;;
12962;SDS011;6546;49.882;8.666;2022-10-16T04:12:31;5.03;;;4.20;;
12962;SDS011;6546;49.882;8.666;2022-10-16T04:14:59;4.87;;;4.33;;
12962;SDS011;6546;49.882;8.666;2022-10-16T04:17:26;4.67;;;4.27;;
12962;SDS011;6546;49.882;8.666;2022-10-16T04:19:52;7.47;;;4.47;;
12962;SDS011;6546;49.882;8.666;2022-10-16T04:22:19;5.37;;;4.60;;
12962;SDS011;6546;49.882;8.666;2022-10-16T04:24:46;5.13;;;4.63;;
12962;SDS011;6546;49.882;8.666;2022-10-16T04:27:14;5.63;;;4.43;;
12962;SDS011;6546;49.882;8.666;2022-10-16T04:29:42;7.27;;;4.60;;
12962;SDS011;6546;49.882;8.666;2022-10-16T04:32:10;7.97;;;4.93;;
12962;SDS011;6546;49.882;8.666;2022-10-16T04:34:38;5.30;;;4.80;;
12962;SDS011;6546;49.882;8.666;2022-10-16T04:37:06;5.40;;;4.90;;
12962;SDS011;6546;49.882;8.666;2022-10-16T04:39:33;7.23;;;4.53;;
12962;SDS011;6546;49.882;8.666;2022-10-16T04:42:00;5.53;;;4.53;;
12962;SDS011;6546;49.882;8.666;2022-10-16T04:44:27;5.63;;;5.03;;
12962;SDS011;6546;49.882;8.666;2022-10-16T04:46:54;4.77;;;4.27;;
12962;SDS011;6546;49.882;8.666;2022-10-16T04:49:23;8.53;;;4.90;;
12962;SDS011;6546;49.882;8.666;2022-10-16T04:51:50;6.77;;;5.03;;
12962;SDS011;6546;49.882;8.666;2022-10-16T04:54:17;7.17;;;4.30;;
12962;SDS011;6546;49.882;8.666;2022-10-16T04:56:49;6.63;;;5.07;;
12962;SDS011;6546;49.882;8.666;2022-10-16T04:59:17;5.60;;;4.63;;
12962;SDS011;6546;49.882;8.666;2022-10-16T05:01:45;8.53;;;5.73;;
12962;SDS011;6546;49.882;8.666;2022-10-16T05:04:12;9.27;;;4.77;;
12962;SDS011;6546;49.882;8.666;2022-10-16T05:06:41;8.00;;;5.23;;
12962;SDS011;6546;49.882;8.666;2022-10-16T05:09:10;6.47;;;5.07;;
12962;SDS011;6546;49.882;8.666;2022-10-16T05:11:36;5.97;;;5.13;;
12962;SDS011;6546;49.882;8.666;2022-10-16T05:14:03;5.50;;;5.00;;
12962;SDS011;6546;49.882;8.666;2022-10-16T05:16:30;7.77;;;6.97;;
12962;SDS011;6546;49.882;8.666;2022-10-16T05:18:57;8.33;;;6.37;;
12962;SDS011;6546;49.882;8.666;2022-10-16T05:21:23;5.97;;;5.30;;
12962;SDS011;6546;49.882;8.666;2022-10-16T05:23:52;5.93;;;5.33;;
12962;SDS011;6546;49.882;8.666;2022-10-16T05:26:19;6.57;;;5.50;;
12962;SDS011;6546;49.882;8.666;2022-10-16T05:28:46;8.50;;;4.77;;
12962;SDS011;6546;49.882;8.666;2022-10-16T05:31:13;8.93;;;5.60;;
12962;SDS011;6546;49.882;8.666;2022-10-16T05:33:40;6.13;;;5.07;;
12962;SDS011;6546;49.882;8.666;2022-10-16T05:36:09;6.70;;;4.83;;
12962;SDS011;6546;49.882;8.666;2022-10-16T05:38:36;5.50;;;5.00;;
12962;SDS011;6546;49.882;8.666;2022-10-16T05:41:05;5.57;;;4.97;;
12962;SDS011;6546;49.882;8.666;2022-10-16T05:43:32;5.43;;;4.93;;
12962;SDS011;6546;49.882;8.666;2022-10-16T05:46:01;6.13;;;4.90;;
12962;SDS011;6546;49.882;8.666;2022-10-16T05:48:30;6.57;;;5.47;;
12962;SDS011;6546;49.882;8.666;2022-10-16T05:50:57;5.63;;;4.30;;
12962;SDS011;6546;49.882;8.666;2022-10-16T05:53:26;5.40;;;4.90;;
12962;SDS011;6546;49.882;8.666;2022-10-16T05:55:54;6.03;;;5.43;;
12962;SDS011;6546;49.882;8.666;2022-10-16T05:58:23;5.37;;;4.80;;
12962;SDS011;6546;49.882;8.666;2022-10-16T06:00:54;5.63;;;4.83;;
12962;SDS011;6546;49.882;8.666;2022-10-16T06:03:21;8.33;;;4.70;;
12962;SDS011;6546;49.882;8.666;2022-10-16T06:05:49;6.90;;;5.23;;
12962;SDS011;6546;49.882;8.666;2022-10-16T06:08:16;7.93;;;5.07;;
12962;SDS011;6546;49.882;8.666;2022-10-16T06:10:44;6.03;;;4.87;;
12962;SDS011;6546;49.882;8.666;2022-10-16T06:13:11;5.60;;;4.53;;
12962;SDS011;6546;49.882;8.666;2022-10-16T06:15:41;5.40;;;4.77;;
12962;SDS011;6546;49.882;8.666;2022-10-16T06:18:10;5.10;;;4.67;;
12962;SDS011;6546;49.882;8.666;2022-10-16T06:20:37;5.23;;;4.73;;
12962;SDS011;6546;49.882;8.666;2022-10-16T06:23:04;6.70;;;4.80;;
12962;SDS011;6546;49.882;8.666;2022-10-16T06:25:31;5.00;;;4.43;;
12962;SDS011;6546;49.882;8.666;2022-10-16T06:27:59;6.33;;;5.20;;
12962;SDS011;6546;49.882;8.666;2022-10-16T06:30:26;5.07;;;4.60;;
12962;SDS011;6546;49.882;8.666;2022-10-16T06:32:54;6.07;;;4.83;;
12962;SDS011;6546;49.882;8.666;2022-10-16T06:35:21;5.27;;;4.77;;
12962;SDS011;6546;49.882;8.666;2022-10-16T06:37:50;6.00;;;4.70;;
12962;SDS011;6546;49.882;8.666;2022-10-16T06:40:18;7.50;;;5.33;;
12962;SDS011;6546;49.882;8.666;2022-10-16T06:42:45;9.97;;;6.30;;
12962;SDS011;6546;49.882;8.666;2022-10-16T06:45:12;9.70;;;7.73;;
12962;SDS011;6546;49.882;8.666;2022-10-16T06:47:39;8.20;;;7.30;;
12962;SDS011;6546;49.882;8.666;2022-10-16T06:50:08;6.27;;;5.67;;
12962;SDS011;6546;49.882;8.666;2022-10-16T06:52:35;6.17;;;5.57;;
12962;SDS011;6546;49.882;8.666;2022-10-16T06:55:02;5.63;;;4.80;;
12962;SDS011;6546;49.882;8.666;2022-10-16T06:57:29;5.37;;;4.87;;
12962;SDS011;6546;49.882;8.666;2022-10-16T06:59:56;4.90;;;4.30;;
12962;SDS011;6546;49.882;8.666;2022-10-16T07:02:23;5.13;;;4.30;;
12962;SDS011;6546;49.882;8.666;2022-10-16T07:04:53;7.57;;;4.53;;
12962;SDS011;6546;49.882;8.666;2022-10-16T07:07:26;4.63;;;3.80;;
12962;SDS011;6546;49.882;8.666;2022-10-16T07:09:53;4.33;;;3.60;;
12962;SDS011;6546;49.882;8.666;2022-10-16T07:12:20;3.70;;;3.40;;
12962;SDS011;6546;49.882;8.666;2022-10-16T07:14:47;4.53;;;3.77;;
12962;SDS011;6546;49.882;8.666;2022-10-16T07:17:20;5.03;;;3.80;;
12962;SDS011;6546;49.882;8.666;2022-10-16T07:19:47;5.57;;;3.73;;
12962;SDS011;6546;49.882;8.666;2022-10-16T07:22:14;4.70;;;3.80;;
12962;SDS011;6546;49.882;8.666;2022-10-16T07:24:42;7.77;;;3.73;;
12962;SDS011;6546;49.882;8.666;2022-10-16T07:27:09;4.60;;;3.40;;
12962;SDS011;6546;49.882;8.666;2022-10-16T07:29:37;4.93;;;3.70;;
12962;SDS011;6546;49.882;8.666;2022-10-16T07:32:05;6.33;;;3.73;;
12962;SDS011;6546;49.882;8.666;2022-10-16T07:34:32;3.70;;;3.37;;
12962;SDS011;6546;49.882;8.666;2022-10-16T07:36:59;6.03;;;3.70;;
12962;SDS011;6546;49.882;8.666;2022-10-16T07:39:25;6.13;;;3.43;;
12962;SDS011;6546;49.882;8.666;2022-10-16T07:41:54;4.53;;;3.60;;
12962;SDS011;6546;49.882;8.666;2022-10-16T07:44:21;8.60;;;3.63;;
12962;SDS011;6546;49.882;8.666;2022-10-16T07:46:48;3.60;;;3.30;;
12962;SDS011;6546;49.882;8.666;2022-10-16T07:49:15;6.10;;;3.80;;
12962;SDS011;6546;49.882;8.666;2022-10-16T07:51:42;7.33;;;4.03;;
12962;SDS011;6546;49.882;8.666;2022-10-16T07:54:09;6.03;;;3.80;;
12962;SDS011;6546;49.882;8.666;2022-10-16T07:56:36;3.43;;;3.00;;
12962;SDS011;6546;49.882;8.666;2022-10-16T07:59:04;4.27;;;3.00;;
12962;SDS011;6546;49.882;8.666;2022-10-16T08:01:31;3.70;;;3.37;;
12962;SDS011;6546;49.882;8.666;2022-10-16T08:03:58;6.77;;;3.20;;
12962;SDS011;6546;49.882;8.666;2022-10-16T08:06:24;6.50;;;3.23;;
12962;SDS011;6546;49.882;8.666;2022-10-16T08:08:51;7.33;;;3.13;;
12962;SDS011;6546;49.882;8.666;2022-10-16T08:11:18;8.90;;;4.37;;
12962;SDS011;6546;49.882;8.666;2022-10-16T08:13:45;6.97;;;4.33;;
12962;SDS011;6546;49.882;8.666;2022-10-16T08:16:14;4.73;;;3.40;;
12962;SDS011;6546;49.882;8.666;2022-10-16T08:18:42;5.90;;;3.40;;
12962;SDS011;6546;49.882;8.666;2022-10-16T08:21:12;5.23;;;3.20;;
12962;SDS011;6546;49.882;8.666;2022-10-16T08:23:41;4.33;;;3.13;;
12962;SDS011;6546;49.882;8.666;2022-10-16T08:26:09;5.10;;;3.33;;
12962;SDS011;6546;49.882;8.666;2022-10-16T08:28:37;4.53;;;3.07;;
12962;SDS011;6546;49.882;8.666;2022-10-16T08:31:06;6.67;;;3.30;;
12962;SDS011;6546;49.882;8.666;2022-10-16T08:33:37;5.87;;;3.50;;
12962;SDS011;6546;49.882;8.666;2022-10-16T08:36:08;5.03;;;3.80;;
12962;SDS011;6546;49.882;8.666;2022-10-16T08:38:39;6.60;;;4.23;;
12962;SDS011;6546;49.882;8.666;2022-10-16T08:44:09;6.27;;;3.50;;
12962;SDS011;6546;49.882;8.666;2022-10-16T08:46:51;6.37;;;3.60;;
12962;SDS011;6546;49.882;8.666;2022-10-16T08:49:30;4.23;;;3.10;;
12962;SDS011;6546;49.882;8.666;2022-10-16T08:51:58;3.70;;;3.00;;
12962;SDS011;6546;49.882;8.666;2022-10-16T08:54:27;4.50;;;2.90;;
12962;SDS011;6546;49.882;8.666;2022-10-16T08:57:00;3.77;;;3.00;;
12962;SDS011;6546;49.882;8.666;2022-10-16T08:59:36;3.47;;;2.73;;
12962;SDS011;6546;49.882;8.666;2022-10-16T09:02:08;5.50;;;2.87;;
12962;SDS011;6546;49.882;8.666;2022-10-16T09:05:05;4.63;;;2.57;;
12962;SDS011;6546;49.882;8.666;2022-10-16T09:07:55;5.47;;;2.97;;
12962;SDS011;6546;49.882;8.666;2022-10-16T09:10:33;5.03;;;2.90;;
12962;SDS011;6546;49.882;8.666;2022-10-16T09:13:13;4.67;;;2.80;;
12962;SDS011;6546;49.882;8.666;2022-10-16T09:15:46;4.03;;;2.60;;
12962;SDS011;6546;49.882;8.666;2022-10-16T09:18:20;3.27;;;2.97;;
12962;SDS011;6546;49.882;8.666;2022-10-16T09:20:57;5.53;;;3.23;;
12962;SDS011;6546;49.882;8.666;2022-10-16T09:23:30;4.27;;;3.20;;
12962;SDS011;6546;49.882;8.666;2022-10-16T09:26:01;4.00;;;3.10;;
12962;SDS011;6546;49.882;8.666;2022-10-16T09:28:28;4.13;;;2.90;;
12962;SDS011;6546;49.882;8.666;2022-10-16T09:30:55;3.30;;;3.00;;
12962;SDS011;6546;49.882;8.666;2022-10-16T09:33:23;3.70;;;2.80;;
12962;SDS011;6546;49.882;8.666;2022-10-16T09:35:54;3.70;;;3.00;;
12962;SDS011;6546;49.882;8.666;2022-10-16T09:38:26;3.03;;;2.83;;
12962;SDS011;6546;49.882;8.666;2022-10-16T09:40:54;3.57;;;3.27;;
12962;SDS011;6546;49.882;8.666;2022-10-16T09:43:24;4.37;;;2.90;;
12962;SDS011;6546;49.882;8.666;2022-10-16T09:45:59;3.57;;;3.27;;
12962;SDS011;6546;49.882;8.666;2022-10-16T09:48:28;3.67;;;3.23;;
12962;SDS011;6546;49.882;8.666;2022-10-16T09:51:02;4.93;;;3.50;;
12962;SDS011;6546;49.882;8.666;2022-10-16T09:53:38;2.97;;;2.73;;
12962;SDS011;6546;49.882;8.666;2022-10-16T09:56:06;5.13;;;3.37;;
12962;SDS011;6546;49.882;8.666;2022-10-16T09:58:35;4.20;;;3.57;;
12962;SDS011;6546;49.882;8.666;2022-10-16T10:01:03;5.63;;;3.10;;
12962;SDS011;6546;49.882;8.666;2022-10-16T10:03:33;3.50;;;2.77;;
12962;SDS011;6546;49.882;8.666;2022-10-16T10:06:05;4.90;;;3.20;;
12962;SDS011;6546;49.882;8.666;2022-10-16T10:08:52;4.97;;;3.40;;
12962;SDS011;6546;49.882;8.666;2022-10-16T10:11:37;3.90;;;3.13;;
12962;SDS011;6546;49.882;8.666;2022-10-16T10:14:17;4.47;;;3.00;;
12962;SDS011;6546;49.882;8.666;2022-10-16T10:16:46;5.20;;;3.10;;
12962;SDS011;6546;49.882;8.666;2022-10-16T10:19:14;5.03;;;3.40;;
12962;SDS011;6546;49.882;8.666;2022-10-16T10:21:44;3.83;;;3.23;;
12962;SDS011;6546;49.882;8.666;2022-10-16T10:24:12;4.67;;;3.27;;
12962;SDS011;6546;49.882;8.666;2022-10-16T10:26:41;4.27;;;2.30;;
12962;SDS011;6546;49.882;8.666;2022-10-16T10:29:17;3.83;;;3.10;;
12962;SDS011;6546;49.882;8.666;2022-10-16T10:31:54;2.70;;;2.50;;
12962;SDS011;6546;49.882;8.666;2022-10-16T10:34:36;4.03;;;3.00;;
12962;SDS011;6546;49.882;8.666;2022-10-16T10:37:18;3.13;;;2.83;;
12962;SDS011;6546;49.882;8.666;2022-10-16T10:40:00;3.40;;;3.10;;
12962;SDS011;6546;49.882;8.666;2022-10-16T10:42:36;3.67;;;2.90;;
12962;SDS011;6546;49.882;8.666;2022-10-16T10:45:18;3.13;;;2.83;;
12962;SDS011;6546;49.882;8.666;2022-10-16T10:47:56;3.40;;;3.10;;
12962;SDS011;6546;49.882;8.666;2022-10-16T10:50:33;3.90;;;2.90;;
12962;SDS011;6546;49.882;8.666;2022-10-16T10:53:22;4.63;;;3.27;;
12962;SDS011;6546;49.882;8.666;2022-10-16T10:55:59;5.33;;;3.50;;
12962;SDS011;6546;49.882;8.666;2022-10-16T10:58:39;3.40;;;3.10;;
12962;SDS011;6546;49.882;8.666;2022-10-16T11:01:22;3.30;;;2.97;;
12962;SDS011;6546;49.882;8.666;2022-10-16T11:04:08;5.13;;;3.13;;
12962;SDS011;6546;49.882;8.666;2022-10-16T11:06:50;4.20;;;3.30;;
12962;SDS011;6546;49.882;8.666;2022-10-16T11:09:23;4.17;;;2.93;;
12962;SDS011;6546;49.882;8.666;2022-10-16T11:11:53;3.93;;;3.53;;
12962;SDS011;6546;49.882;8.666;2022-10-16T11:14:26;4.13;;;3.73;;
12962;SDS011;6546;49.882;8.666;2022-10-16T11:16:58;4.00;;;3.53;;
12962;SDS011;6546;49.882;8.666;2022-10-16T11:19:32;4.40;;;3.70;;
12962;SDS011;6546;49.882;8.666;2022-10-16T11:22:04;3.67;;;3.37;;
12962;SDS011;6546;49.882;8.666;2022-10-16T11:24:45;5.30;;;3.40;;
12962;SDS011;6546;49.882;8.666;2022-10-16T11:27:17;3.90;;;3.50;;
12962;SDS011;6546;49.882;8.666;2022-10-16T11:29:52;4.03;;;3.60;;
12962;SDS011;6546;49.882;8.666;2022-10-16T11:32:24;4.30;;;3.37;;
12962;SDS011;6546;49.882;8.666;2022-10-16T11:34:57;5.17;;;3.67;;
12962;SDS011;6546;49.882;8.666;2022-10-16T11:37:30;4.03;;;3.63;;
12962;SDS011;6546;49.882;8.666;2022-10-16T11:40:03;3.53;;;3.20;;
12962;SDS011;6546;49.882;8.666;2022-10-16T11:42:41;3.40;;;3.10;;
12962;SDS011;6546;49.882;8.666;2022-10-16T11:45:17;3.57;;;3.23;;
12962;SDS011;6546;49.882;8.666;2022-10-16T11:47:54;3.47;;;2.93;;
12962;SDS011;6546;49.882;8.666;2022-10-16T11:50:29;3.97;;;3.50;;
12962;SDS011;6546;49.882;8.666;2022-10-16T11:53:01;3.47;;;2.83;;
12962;SDS011;6546;49.882;8.666;2022-10-16T11:55:38;2.83;;;2.50;;
12962;SDS011;6546;49.882;8.666;2022-10-16T11:58:07;3.17;;;2.83;;
12962;SDS011;6546;49.882;8.666;2022-10-16T12:00:43;3.43;;;2.83;;
12962;SDS011;6546;49.882;8.666;2022-10-16T12:03:17;3.67;;;2.30;;
12962;SDS011;6546;49.882;8.666;2022-10-16T12:08:49;3.27;;;2.80;;
12962;SDS011;6546;49.882;8.666;2022-10-16T12:11:30;7.00;;;2.60;;
12962;SDS011;6546;49.882;8.666;2022-10-16T12:14:04;3.53;;;3.10;;
12962;SDS011;6546;49.882;8.666;2022-10-16T12:16:36;2.80;;;2.53;;
12962;SDS011;6546;49.882;8.666;2022-10-16T12:19:11;3.67;;;2.30;;
12962;SDS011;6546;49.882;8.666;2022-10-16T12:21:39;2.77;;;2.57;;
12962;SDS011;6546;49.882;8.666;2022-10-16T12:24:07;3.77;;;2.33;;
12962;SDS011;6546;49.882;8.666;2022-10-16T12:26:49;3.20;;;2.90;;
12962;SDS011;6546;49.882;8.666;2022-10-16T12:29:22;3.20;;;2.40;;
12962;SDS011;6546;49.882;8.666;2022-10-16T12:31:54;3.30;;;3.00;;
12962;SDS011;6546;49.882;8.666;2022-10-16T12:34:22;3.17;;;2.50;;
12962;SDS011;6546;49.882;8.666;2022-10-16T12:36:54;2.63;;;2.43;;
12962;SDS011;6546;49.882;8.666;2022-10-16T12:39:22;2.97;;;2.67;;
12962;SDS011;6546;49.882;8.666;2022-10-16T12:42:03;3.37;;;2.77;;
12962;SDS011;6546;49.882;8.666;2022-10-16T12:44:32;2.87;;;2.50;;
12962;SDS011;6546;49.882;8.666;2022-10-16T12:47:00;3.70;;;3.00;;
12962;SDS011;6546;49.882;8.666;2022-10-16T12:49:31;3.83;;;3.00;;
12962;SDS011;6546;49.882;8.666;2022-10-16T12:52:03;4.30;;;2.97;;
12962;SDS011;6546;49.882;8.666;2022-10-16T12:54:31;4.43;;;2.90;;
12962;SDS011;6546;49.882;8.666;2022-10-16T12:57:06;3.60;;;2.77;;
12962;SDS011;6546;49.882;8.666;2022-10-16T12:59:48;3.53;;;2.70;;
12962;SDS011;6546;49.882;8.666;2022-10-16T13:05:29;5.20;;;4.70;;
12962;SDS011;6546;49.882;8.666;2022-10-16T13:08:11;6.97;;;4.47;;
12962;SDS011;6546;49.882;8.666;2022-10-16T13:10:53;4.63;;;3.20;;
12962;SDS011;6546;49.882;8.666;2022-10-16T13:13:35;3.23;;;2.90;;
12962;SDS011;6546;49.882;8.666;2022-10-16T13:16:18;3.60;;;3.00;;
12962;SDS011;6546;49.882;8.666;2022-10-16T13:18:55;3.27;;;3.03;;
12962;SDS011;6546;49.882;8.666;2022-10-16T13:21:31;2.97;;;2.60;;
12962;SDS011;6546;49.882;8.666;2022-10-16T13:24:08;4.97;;;3.00;;
12962;SDS011;6546;49.882;8.666;2022-10-16T13:26:46;3.30;;;3.00;;
12962;SDS011;6546;49.882;8.666;2022-10-16T13:29:21;3.10;;;2.87;;
12962;SDS011;6546;49.882;8.666;2022-10-16T13:31:49;4.20;;;3.03;;
12962;SDS011;6546;49.882;8.666;2022-10-16T13:34:17;3.30;;;2.80;;
12962;SDS011;6546;49.882;8.666;2022-10-16T13:36:48;3.37;;;3.13;;
12962;SDS011;6546;49.882;8.666;2022-10-16T13:39:21;3.57;;;3.27;;
12962;SDS011;6546;49.882;8.666;2022-10-16T13:41:57;2.90;;;2.60;;
12962;SDS011;6546;49.882;8.666;2022-10-16T13:44:29;4.07;;;3.00;;
12962;SDS011;6546;49.882;8.666;2022-10-16T13:47:04;3.10;;;2.63;;
12962;SDS011;6546;49.882;8.666;2022-10-16T13:49:30;5.03;;;2.73;;
12962;SDS011;6546;49.882;8.666;2022-10-16T13:51:58;4.70;;;3.10;;
12962;SDS011;6546;49.882;8.666;2022-10-16T13:54:27;4.47;;;4.00;;
12962;SDS011;6546;49.882;8.666;2022-10-16T13:56:55;8.80;;;7.40;;
12962;SDS011;6546;49.882;8.666;2022-10-16T13:59:23;17.00;;;13.30;;
12962;SDS011;6546;49.882;8.666;2022-10-16T14:01:53;12.43;;;9.63;;
12962;SDS011;6546;49.882;8.666;2022-10-16T14:04:22;6.73;;;6.03;;
12962;SDS011;6546;49.882;8.666;2022-10-16T14:06:50;4.80;;;4.30;;
12962;SDS011;6546;49.882;8.666;2022-10-16T14:09:20;5.03;;;3.50;;
12962;SDS011;6546;49.882;8.666;2022-10-16T14:11:51;3.87;;;3.57;;
12962;SDS011;6546;49.882;8.666;2022-10-16T14:14:22;4.23;;;3.60;;
12962;SDS011;6546;49.882;8.666;2022-10-16T14:16:50;5.60;;;3.80;;
12962;SDS011;6546;49.882;8.666;2022-10-16T14:19:23;4.83;;;3.60;;
12962;SDS011;6546;49.882;8.666;2022-10-16T14:21:52;4.33;;;3.73;;
12962;SDS011;6546;49.882;8.666;2022-10-16T14:24:22;3.83;;;3.53;;
12962;SDS011;6546;49.882;8.666;2022-10-16T14:26:53;3.87;;;3.50;;
12962;SDS011;6546;49.882;8.666;2022-10-16T14:29:22;4.33;;;3.90;;
12962;SDS011;6546;49.882;8.666;2022-10-16T14:31:54;4.83;;;3.40;;
12962;SDS011;6546;49.882;8.666;2022-10-16T14:34:37;5.00;;;3.37;;
12962;SDS011;6546;49.882;8.666;2022-10-16T14:37:06;3.73;;;3.43;;
12962;SDS011;6546;49.882;8.666;2022-10-16T14:39:35;3.63;;;3.23;;
12962;SDS011;6546;49.882;8.666;2022-10-16T14:42:02;3.37;;;3.07;;
12962;SDS011;6546;49.882;8.666;2022-10-16T14:44:31;4.90;;;3.30;;
12962;SDS011;6546;49.882;8.666;2022-10-16T14:47:06;3.53;;;2.80;;
12962;SDS011;6546;49.882;8.666;2022-10-16T14:49:37;4.17;;;3.53;;
12962;SDS011;6546;49.882;8.666;2022-10-16T14:52:07;3.67;;;3.17;;
12962;SDS011;6546;49.882;8.666;2022-10-16T14:54:36;6.27;;;3.93;;
12962;SDS011;6546;49.882;8.666;2022-10-16T14:57:03;4.63;;;3.63;;
12962;SDS011;6546;49.882;8.666;2022-10-16T14:59:32;6.67;;;4.13;;
12962;SDS011;6546;49.882;8.666;2022-10-16T15:02:06;5.97;;;4.30;;
12962;SDS011;6546;49.882;8.666;2022-10-16T15:04:46;5.73;;;3.83;;
12962;SDS011;6546;49.882;8.666;2022-10-16T15:07:13;3.87;;;3.33;;
12962;SDS011;6546;49.882;8.666;2022-10-16T15:09:40;4.17;;;3.77;;
12962;SDS011;6546;49.882;8.666;2022-10-16T15:12:07;3.87;;;3.53;;
12962;SDS011;6546;49.882;8.666;2022-10-16T15:14:34;4.57;;;3.40;;
12962;SDS011;6546;49.882;8.666;2022-10-16T15:17:01;5.90;;;3.47;;
12962;SDS011;6546;49.882;8.666;2022-10-16T15:19:28;6.23;;;3.43;;
12962;SDS011;6546;49.882;8.666;2022-10-16T15:21:56;3.90;;;3.60;;
12962;SDS011;6546;49.882;8.666;2022-10-16T15:24:23;4.43;;;4.00;;
12962;SDS011;6546;49.882;8.666;2022-10-16T15:26:50;6.57;;;3.97;;
12962;SDS011;6546;49.882;8.666;2022-10-16T15:29:17;3.47;;;3.17;;
12962;SDS011;6546;49.882;8.666;2022-10-16T15:31:44;3.57;;;3.23;;